createdAt,value
2023-01-13T00:01:31.692Z,8.20
2023-01-13T00:03:58.756Z,8.10
2023-01-13T00:06:26.619Z,8.10
2023-01-13T00:08:53.932Z,8.10
2023-01-13T00:11:24.324Z,8.10
2023-01-13T00:13:57.394Z,7.70
2023-01-13T00:16:24.273Z,8.10
2023-01-13T00:18:53.911Z,8.10
2023-01-13T00:21:25.136Z,8.20
2023-01-13T00:23:54.099Z,8.20
2023-01-13T00:26:26.928Z,8.90
2023-01-13T00:28:58.713Z,8.10
2023-01-13T00:34:09.791Z,8.10
2023-01-13T00:36:39.314Z,9.00
2023-01-13T00:39:09.141Z,8.10
2023-01-13T00:41:55.976Z,8.00
2023-01-13T00:44:22.840Z,8.70
2023-01-13T00:46:49.764Z,8.10
2023-01-13T00:49:19.748Z,9.00
2023-01-13T00:51:46.657Z,8.10
2023-01-13T00:54:16.827Z,8.60
2023-01-13T00:56:43.641Z,7.80
2023-01-13T00:59:12.754Z,8.10
2023-01-13T01:01:40.846Z,8.10
2023-01-13T01:04:09.324Z,8.30
2023-01-13T01:06:36.304Z,8.00
2023-01-13T01:09:04.865Z,8.10
2023-01-13T01:11:33.799Z,8.00
2023-01-13T01:14:04.103Z,8.10
2023-01-13T01:16:32.886Z,8.10
2023-01-13T01:19:01.151Z,8.00
2023-01-13T01:21:38.419Z,8.10
2023-01-13T01:24:05.825Z,8.10
2023-01-13T01:26:38.840Z,8.10
2023-01-13T01:29:05.901Z,8.20
2023-01-13T01:31:33.768Z,8.20
2023-01-13T01:34:04.974Z,8.20
2023-01-13T01:36:36.460Z,9.30
2023-01-13T01:39:04.142Z,8.10
2023-01-13T01:41:35.930Z,8.00
2023-01-13T01:44:26.467Z,9.30
2023-01-13T01:46:54.309Z,8.10
2023-01-13T01:49:33.622Z,9.00
2023-01-13T01:52:06.695Z,8.10
2023-01-13T01:55:06.614Z,8.10
2023-01-13T01:57:46.821Z,8.20
2023-01-13T02:00:14.382Z,8.20
2023-01-13T02:02:43.992Z,8.20
2023-01-13T02:05:11.728Z,8.10
2023-01-13T02:07:41.139Z,8.10
2023-01-13T02:10:12.657Z,8.10
2023-01-13T02:12:41.024Z,8.20
2023-01-13T02:15:17.120Z,8.10
2023-01-13T02:18:05.757Z,8.10
2023-01-13T02:20:51.510Z,8.10
2023-01-13T02:23:42.980Z,8.10
2023-01-13T02:26:41.919Z,8.10
2023-01-13T02:30:05.358Z,8.10
2023-01-13T02:33:10.388Z,8.10
2023-01-13T02:35:40.853Z,8.10
2023-01-13T02:38:11.259Z,8.20
2023-01-13T02:40:49.162Z,8.10
2023-01-13T02:43:57.963Z,8.10
2023-01-13T02:46:36.495Z,8.10
2023-01-13T02:49:08.644Z,8.10
2023-01-13T02:51:38.744Z,8.10
2023-01-13T02:54:13.858Z,8.10
2023-01-13T02:56:44.711Z,8.10
2023-01-13T02:59:12.696Z,8.10
2023-01-13T03:01:40.653Z,8.10
2023-01-13T03:04:16.108Z,8.10
2023-01-13T03:06:54.530Z,8.10
2023-01-13T03:09:38.699Z,8.20
2023-01-13T03:12:33.387Z,8.10
2023-01-13T03:15:06.492Z,8.10
2023-01-13T03:17:53.551Z,8.10
2023-01-13T03:20:27.616Z,8.10
2023-01-13T03:23:07.817Z,8.10
2023-01-13T03:25:42.918Z,8.10
2023-01-13T03:28:26.403Z,8.10
2023-01-13T03:31:00.714Z,8.10
2023-01-13T03:33:34.243Z,8.10
2023-01-13T03:36:05.750Z,8.10
2023-01-13T03:38:43.938Z,8.10
2023-01-13T03:41:19.063Z,8.00
2023-01-13T03:44:10.707Z,8.40
2023-01-13T03:46:49.697Z,8.60
2023-01-13T03:49:21.377Z,8.10
2023-01-13T03:51:59.596Z,8.60
2023-01-13T03:54:39.562Z,8.20
2023-01-13T03:57:11.704Z,7.60
2023-01-13T03:59:42.563Z,8.00
2023-01-13T04:02:56.970Z,8.30
2023-01-13T04:05:24.907Z,8.10
2023-01-13T04:08:25.682Z,8.10
2023-01-13T04:11:07.981Z,8.10
2023-01-13T04:13:38.486Z,8.20
2023-01-13T04:16:09.753Z,8.10
2023-01-13T04:18:38.474Z,7.80
2023-01-13T04:21:06.163Z,8.10
2023-01-13T04:23:33.372Z,8.10
2023-01-13T04:26:02.302Z,8.20
2023-01-13T04:28:29.309Z,8.50
2023-01-13T04:30:56.080Z,8.20
2023-01-13T04:33:23.291Z,8.30
2023-01-13T04:35:50.164Z,8.30
2023-01-13T04:38:18.905Z,8.20
2023-01-13T04:40:46.116Z,8.20
2023-01-13T04:43:12.875Z,8.20
2023-01-13T04:45:39.859Z,8.20
2023-01-13T04:48:09.445Z,8.60
2023-01-13T04:50:48.236Z,8.60
2023-01-13T04:53:17.311Z,8.00
2023-01-13T04:55:45.025Z,9.00
2023-01-13T04:58:14.844Z,8.10
2023-01-13T05:00:42.028Z,8.20
2023-01-13T05:03:08.779Z,8.20
2023-01-13T05:05:44.027Z,8.00
2023-01-13T05:08:13.243Z,8.20
2023-01-13T05:10:39.966Z,8.30
2023-01-13T05:13:25.926Z,8.10
2023-01-13T05:16:11.470Z,8.30
2023-01-13T05:18:38.204Z,8.30
2023-01-13T05:21:25.374Z,8.20
2023-01-13T05:24:10.517Z,8.30
2023-01-13T05:26:37.221Z,8.30
2023-01-13T05:29:04.373Z,8.20
2023-01-13T05:31:31.214Z,8.20
2023-01-13T05:33:57.850Z,8.20
2023-01-13T05:36:24.576Z,8.20
2023-01-13T05:38:52.318Z,8.20
2023-01-13T05:41:37.503Z,8.10
2023-01-13T05:44:04.357Z,7.80
2023-01-13T05:46:31.083Z,7.60
2023-01-13T05:48:58.735Z,7.50
2023-01-13T05:51:26.420Z,7.50
2023-01-13T05:53:53.189Z,7.40
2023-01-13T05:56:19.891Z,7.30
2023-01-13T05:58:46.594Z,7.30
2023-01-13T06:01:13.323Z,7.20
2023-01-13T06:03:40.021Z,7.20
2023-01-13T06:06:08.818Z,7.10
2023-01-13T06:08:36.994Z,7.00
2023-01-13T06:11:05.457Z,7.00
2023-01-13T06:13:32.104Z,6.90
2023-01-13T06:15:59.652Z,6.90
2023-01-13T06:18:27.101Z,6.90
2023-01-13T06:20:53.812Z,6.90
2023-01-13T06:23:20.655Z,6.90
2023-01-13T06:26:05.328Z,6.90
2023-01-13T06:28:33.302Z,6.90
2023-01-13T06:31:03.620Z,6.90
2023-01-13T06:33:40.525Z,6.90
2023-01-13T06:36:13.694Z,6.90
2023-01-13T06:38:44.342Z,6.90
2023-01-13T06:41:10.989Z,6.90
2023-01-13T06:43:39.238Z,7.00
2023-01-13T06:46:06.059Z,7.10
2023-01-13T06:48:35.225Z,7.10
2023-01-13T06:51:03.548Z,7.20
2023-01-13T06:53:30.300Z,7.20
2023-01-13T06:55:56.942Z,7.10
2023-01-13T06:58:23.593Z,7.10
2023-01-13T07:00:51.396Z,7.10
2023-01-13T07:03:19.411Z,7.00
2023-01-13T07:05:52.788Z,7.00
2023-01-13T07:08:19.458Z,7.00
2023-01-13T07:10:46.194Z,7.00
2023-01-13T07:13:31.390Z,7.00
2023-01-13T07:16:00.881Z,7.00
2023-01-13T07:18:31.396Z,7.00
2023-01-13T07:21:03.981Z,6.90
2023-01-13T07:23:33.233Z,6.90
2023-01-13T07:26:00.495Z,6.90
2023-01-13T07:28:29.091Z,6.90
2023-01-13T07:30:56.300Z,7.00
2023-01-13T07:33:23.460Z,7.00
2023-01-13T07:35:57.757Z,7.10
2023-01-13T07:38:25.529Z,7.10
2023-01-13T07:40:52.251Z,7.20
2023-01-13T07:43:34.433Z,7.30
2023-01-13T07:46:04.517Z,7.40
2023-01-13T07:48:33.221Z,7.30
2023-01-13T07:51:05.747Z,7.30
2023-01-13T07:53:32.672Z,7.50
2023-01-13T07:56:00.212Z,7.50
2023-01-13T07:58:28.456Z,7.40
2023-01-13T08:00:55.674Z,7.40
2023-01-13T08:03:23.313Z,7.40
2023-01-13T08:05:50.561Z,7.40
2023-01-13T08:08:17.557Z,7.50
2023-01-13T08:10:45.006Z,7.50
2023-01-13T08:13:18.311Z,7.40
2023-01-13T08:15:46.320Z,7.50
2023-01-13T08:18:13.485Z,7.50
2023-01-13T08:20:40.563Z,7.60
2023-01-13T08:23:07.661Z,7.70
2023-01-13T08:25:34.814Z,7.60
2023-01-13T08:28:01.591Z,7.60
2023-01-13T08:30:28.766Z,7.70
2023-01-13T08:32:55.490Z,7.70
2023-01-13T08:35:23.032Z,7.70
2023-01-13T08:37:50.673Z,7.70
2023-01-13T08:40:19.396Z,7.70
2023-01-13T08:42:48.528Z,7.70
2023-01-13T08:45:15.781Z,7.70
2023-01-13T08:47:42.504Z,7.70
2023-01-13T08:50:09.934Z,7.60
2023-01-13T08:52:36.635Z,7.60
2023-01-13T08:55:03.790Z,7.60
2023-01-13T08:57:30.534Z,7.60
2023-01-13T08:59:57.229Z,7.60
2023-01-13T09:02:25.121Z,7.70
2023-01-13T09:04:52.730Z,7.70
2023-01-13T09:07:19.529Z,7.70
2023-01-13T09:09:46.429Z,7.60
2023-01-13T09:12:33.971Z,7.70
2023-01-13T09:15:01.338Z,7.60
2023-01-13T09:17:28.091Z,7.60
2023-01-13T09:19:54.750Z,7.60
2023-01-13T09:22:21.867Z,7.70
2023-01-13T09:24:48.522Z,7.70
2023-01-13T09:27:15.825Z,7.80
2023-01-13T09:29:43.185Z,7.80
2023-01-13T09:32:14.623Z,7.90
2023-01-13T09:34:59.846Z,7.90
2023-01-13T09:37:36.010Z,7.90
2023-01-13T09:40:06.001Z,7.90
2023-01-13T09:43:13.418Z,8.00
2023-01-13T09:45:42.918Z,8.00
2023-01-13T09:48:30.416Z,8.00
2023-01-13T09:50:59.882Z,8.00
2023-01-13T09:53:32.305Z,8.10
2023-01-13T09:55:59.054Z,8.10
2023-01-13T09:58:25.965Z,8.20
2023-01-13T10:00:55.446Z,8.10
2023-01-13T10:03:28.788Z,8.20
2023-01-13T10:06:11.664Z,8.10
2023-01-13T10:08:40.134Z,8.20
2023-01-13T10:11:50.987Z,8.10
2023-01-13T10:14:39.972Z,8.10
2023-01-13T10:17:28.216Z,8.10
2023-01-13T10:20:07.251Z,8.10
2023-01-13T10:22:52.446Z,8.20
2023-01-13T10:25:35.816Z,8.20
2023-01-13T10:28:09.688Z,8.10
2023-01-13T10:30:40.135Z,8.20
2023-01-13T10:33:15.116Z,8.40
2023-01-13T10:35:53.988Z,8.20
2023-01-13T10:38:26.715Z,8.20
2023-01-13T10:40:56.418Z,8.20
2023-01-13T10:43:24.016Z,8.30
2023-01-13T10:46:02.056Z,8.30
2023-01-13T10:48:59.322Z,8.30
2023-01-13T10:51:25.964Z,8.40
2023-01-13T10:53:55.944Z,8.30
2023-01-13T10:56:24.862Z,8.40
2023-01-13T10:58:51.625Z,8.30
2023-01-13T11:01:27.800Z,8.40
2023-01-13T11:03:56.029Z,8.40
2023-01-13T11:06:30.673Z,8.30
2023-01-13T11:08:58.477Z,8.40
2023-01-13T11:11:43.113Z,8.40
2023-01-13T11:14:39.434Z,8.40
2023-01-13T11:18:00.498Z,8.40
2023-01-13T11:20:50.234Z,8.50
2023-01-13T11:23:37.994Z,8.50
2023-01-13T11:26:12.554Z,8.60
2023-01-13T11:29:03.934Z,8.60
2023-01-13T11:31:36.932Z,8.80
2023-01-13T11:34:15.725Z,9.10
2023-01-13T11:36:51.061Z,9.20
2023-01-13T11:39:39.739Z,9.10
2023-01-13T11:42:44.909Z,9.30
2023-01-13T11:45:37.283Z,9.50
2023-01-13T11:48:04.882Z,9.60
2023-01-13T11:50:45.329Z,9.60
2023-01-13T11:53:17.673Z,9.60
2023-01-13T11:56:09.814Z,9.70
2023-01-13T11:58:58.443Z,9.20
2023-01-13T12:02:00.470Z,9.00
2023-01-13T12:04:36.238Z,8.80
2023-01-13T12:07:41.831Z,8.80
2023-01-13T12:10:24.109Z,8.70
2023-01-13T12:13:00.307Z,8.60
2023-01-13T12:18:37.642Z,8.30
2023-01-13T12:21:22.807Z,8.20
2023-01-13T12:23:58.242Z,8.30
2023-01-13T12:26:26.119Z,8.30
2023-01-13T12:29:01.991Z,8.40
2023-01-13T12:31:30.243Z,8.80
2023-01-13T12:34:30.302Z,9.00
2023-01-13T12:37:06.088Z,8.90
2023-01-13T12:39:44.519Z,9.00
2023-01-13T12:42:48.992Z,9.20
2023-01-13T12:45:17.344Z,9.10
2023-01-13T12:47:48.752Z,9.10
2023-01-13T12:50:24.850Z,9.50
2023-01-13T12:53:11.189Z,9.40
2023-01-13T12:55:37.842Z,9.20
2023-01-13T12:58:10.651Z,9.10
2023-01-13T13:00:40.468Z,8.90
2023-01-13T13:03:18.585Z,7.90
2023-01-13T13:06:07.157Z,7.20
2023-01-13T13:08:45.408Z,7.00
2023-01-13T13:11:33.594Z,7.30
2023-01-13T13:14:01.808Z,7.30
2023-01-13T13:16:31.555Z,7.30
2023-01-13T13:19:20.286Z,7.40
2023-01-13T13:22:13.496Z,7.60
2023-01-13T13:24:41.603Z,7.80
2023-01-13T13:27:30.265Z,8.00
2023-01-13T13:30:00.579Z,8.20
2023-01-13T13:33:01.170Z,8.20
2023-01-13T13:35:52.213Z,8.40
2023-01-13T13:39:02.951Z,8.50
2023-01-13T13:41:48.984Z,8.40
2023-01-13T13:44:40.113Z,8.70
2023-01-13T13:47:07.818Z,8.70
2023-01-13T13:49:49.013Z,9.00
2023-01-13T13:52:20.963Z,9.10
2023-01-13T13:54:52.963Z,9.30
2023-01-13T13:57:39.559Z,9.50
2023-01-13T14:00:19.080Z,9.60
2023-01-13T14:02:52.602Z,9.40
2023-01-13T14:05:23.828Z,9.60
2023-01-13T14:08:15.619Z,9.30
2023-01-13T14:10:47.611Z,9.20
2023-01-13T14:13:28.060Z,9.10
2023-01-13T14:15:59.094Z,9.00
2023-01-13T14:18:27.716Z,8.90
2023-01-13T14:21:05.483Z,8.90
2023-01-13T14:23:34.470Z,8.90
2023-01-13T14:26:06.667Z,8.90
2023-01-13T14:28:38.335Z,8.90
2023-01-13T14:31:08.054Z,9.00
2023-01-13T14:33:56.952Z,9.00
2023-01-13T14:36:37.780Z,9.00
2023-01-13T14:39:04.370Z,8.90
2023-01-13T14:41:35.958Z,8.70
2023-01-13T14:44:27.642Z,8.60
2023-01-13T14:46:57.187Z,8.60
2023-01-13T14:49:41.330Z,8.70
2023-01-13T14:52:22.976Z,8.70
2023-01-13T14:54:52.171Z,8.70
2023-01-13T14:57:32.407Z,8.70
2023-01-13T15:00:14.311Z,8.60
2023-01-13T15:02:46.749Z,8.60
2023-01-13T15:05:19.588Z,8.70
2023-01-13T15:08:11.585Z,8.70
2023-01-13T15:10:49.397Z,8.60
2023-01-13T15:13:37.465Z,8.60
2023-01-13T15:16:20.459Z,8.50
2023-01-13T15:18:47.263Z,8.50
2023-01-13T15:21:15.742Z,8.50
2023-01-13T15:23:43.017Z,8.40
2023-01-13T15:26:28.378Z,8.40
2023-01-13T15:28:57.632Z,8.40
2023-01-13T15:31:25.921Z,8.40
2023-01-13T15:33:52.766Z,8.40
2023-01-13T15:36:29.209Z,8.40
2023-01-13T15:38:56.974Z,8.20
2023-01-13T15:41:47.673Z,8.00
2023-01-13T15:44:34.844Z,7.80
2023-01-13T15:47:09.555Z,7.50
2023-01-13T15:49:40.398Z,7.30
2023-01-13T15:52:33.229Z,7.20
2023-01-13T15:54:59.849Z,7.10
2023-01-13T15:57:30.264Z,7.00
2023-01-13T16:00:00.481Z,6.90
2023-01-13T16:02:27.507Z,6.90
2023-01-13T16:04:54.799Z,6.80
2023-01-13T16:07:23.642Z,6.60
2023-01-13T16:09:50.486Z,6.60
2023-01-13T16:12:17.289Z,6.60
2023-01-13T16:14:44.003Z,6.70
2023-01-13T16:17:19.037Z,6.70
2023-01-13T16:19:46.384Z,6.80
2023-01-13T16:22:14.777Z,6.90
2023-01-13T16:24:42.244Z,6.70
2023-01-13T16:27:18.506Z,6.80
2023-01-13T16:29:45.543Z,6.80
2023-01-13T16:32:12.358Z,6.70
2023-01-13T16:34:39.257Z,6.60
2023-01-13T16:37:32.364Z,6.70
2023-01-13T16:39:59.099Z,6.80
2023-01-13T16:42:25.899Z,6.80
2023-01-13T16:44:52.928Z,6.80
2023-01-13T16:47:20.018Z,6.90
2023-01-13T16:49:46.903Z,6.90
2023-01-13T16:52:13.637Z,6.90
2023-01-13T16:54:40.317Z,7.10
2023-01-13T16:57:07.829Z,7.10
2023-01-13T16:59:34.659Z,7.10
2023-01-13T17:02:02.108Z,7.10
2023-01-13T17:04:28.995Z,7.30
2023-01-13T17:07:03.211Z,7.50
2023-01-13T17:09:30.158Z,7.30
2023-01-13T17:11:56.872Z,7.40
2023-01-13T17:14:24.728Z,7.40
2023-01-13T17:16:58.674Z,7.50
2023-01-13T17:19:25.820Z,7.40
2023-01-13T17:21:52.692Z,7.40
2023-01-13T17:24:19.801Z,7.50
2023-01-13T17:26:49.313Z,7.50
2023-01-13T17:29:22.400Z,7.50
2023-01-13T17:31:52.466Z,7.50
2023-01-13T17:34:20.060Z,7.40
2023-01-13T17:36:46.907Z,7.30
2023-01-13T17:39:17.432Z,7.20
2023-01-13T17:41:45.073Z,7.10
2023-01-13T17:44:17.472Z,7.00
2023-01-13T17:46:44.902Z,7.00
2023-01-13T17:49:12.922Z,6.90
2023-01-13T17:51:41.432Z,6.90
2023-01-13T17:54:12.133Z,6.90
2023-01-13T17:56:40.936Z,6.80
2023-01-13T17:59:10.309Z,6.80
2023-01-13T18:01:38.514Z,6.70
2023-01-13T18:04:06.838Z,6.70
2023-01-13T18:06:33.893Z,6.70
2023-01-13T18:09:00.760Z,6.70
2023-01-13T18:11:27.890Z,6.70
2023-01-13T18:13:57.074Z,6.60
2023-01-13T18:16:25.602Z,6.60
2023-01-13T18:19:15.079Z,6.70
2023-01-13T18:22:00.827Z,6.70
2023-01-13T18:24:46.035Z,6.70
2023-01-13T18:27:19.890Z,6.70
2023-01-13T18:29:46.923Z,6.90
2023-01-13T18:32:14.009Z,6.90
2023-01-13T18:34:41.488Z,6.90
2023-01-13T18:37:10.609Z,6.90
2023-01-13T18:39:37.580Z,6.80
2023-01-13T18:42:24.657Z,7.30
2023-01-13T18:44:52.546Z,7.00
2023-01-13T18:47:19.249Z,6.80
2023-01-13T18:49:46.558Z,6.90
2023-01-13T18:52:13.734Z,6.90
2023-01-13T18:54:40.380Z,6.80
2023-01-13T18:57:07.311Z,6.70
2023-01-13T18:59:34.722Z,6.70
2023-01-13T19:02:02.641Z,6.60
2023-01-13T19:04:29.518Z,6.60
2023-01-13T19:07:00.777Z,6.60
2023-01-13T19:09:29.228Z,6.50
2023-01-13T19:11:57.301Z,6.50
2023-01-13T19:14:34.293Z,6.50
2023-01-13T19:17:09.283Z,6.90
2023-01-13T19:19:44.283Z,6.50
2023-01-13T19:22:12.934Z,6.40
2023-01-13T19:24:42.771Z,6.40
2023-01-13T19:27:11.020Z,6.50
2023-01-13T19:29:37.785Z,6.50
2023-01-13T19:32:19.416Z,6.40
2023-01-13T19:34:47.742Z,6.30
2023-01-13T19:37:14.643Z,6.30
2023-01-13T19:39:41.369Z,6.30
2023-01-13T19:42:26.406Z,6.30
2023-01-13T19:45:22.346Z,6.30
2023-01-13T19:47:48.984Z,6.40
2023-01-13T19:50:16.140Z,6.50
2023-01-13T19:52:43.113Z,6.50
2023-01-13T19:55:11.869Z,6.50
2023-01-13T19:57:41.544Z,6.50
2023-01-13T20:00:09.908Z,6.60
2023-01-13T20:02:37.012Z,6.60
2023-01-13T20:05:06.467Z,6.50
2023-01-13T20:07:34.962Z,6.50
2023-01-13T20:10:01.841Z,6.50
2023-01-13T20:12:29.478Z,6.60
2023-01-13T20:14:56.678Z,6.70
2023-01-13T20:17:25.452Z,6.70
2023-01-13T20:19:52.311Z,6.80
2023-01-13T20:22:19.049Z,6.80
2023-01-13T20:24:45.727Z,6.80
2023-01-13T20:27:12.441Z,6.80
2023-01-13T20:29:39.411Z,6.80
2023-01-13T20:32:06.045Z,6.80
2023-01-13T20:34:32.728Z,6.80
2023-01-13T20:37:00.217Z,6.80
2023-01-13T20:39:26.953Z,6.80
2023-01-13T20:42:13.227Z,6.80
2023-01-13T20:44:40.609Z,6.70
2023-01-13T20:47:07.690Z,6.70
2023-01-13T20:49:36.099Z,6.70
2023-01-13T20:52:09.086Z,6.70
2023-01-13T20:54:40.381Z,6.70
2023-01-13T20:57:09.741Z,6.60
2023-01-13T20:59:37.593Z,6.60
2023-01-13T21:02:06.007Z,6.60
2023-01-13T21:04:32.679Z,6.60
2023-01-13T21:06:59.304Z,6.50
2023-01-13T21:09:27.231Z,6.60
2023-01-13T21:12:12.548Z,6.60
2023-01-13T21:14:57.995Z,6.60
2023-01-13T21:17:43.525Z,6.50
2023-01-13T21:20:13.143Z,6.50
2023-01-13T21:22:40.709Z,6.50
2023-01-13T21:25:07.983Z,6.60
2023-01-13T21:27:34.751Z,6.60
2023-01-13T21:30:01.463Z,6.50
2023-01-13T21:32:28.503Z,6.40
2023-01-13T21:34:55.229Z,6.40
2023-01-13T21:37:22.237Z,6.40
2023-01-13T21:39:49.203Z,6.40
2023-01-13T21:42:35.642Z,6.30
2023-01-13T21:45:21.656Z,6.30
2023-01-13T21:47:48.638Z,6.30
2023-01-13T21:50:28.662Z,6.30
2023-01-13T21:52:57.168Z,6.30
2023-01-13T21:55:28.123Z,6.30
2023-01-13T21:58:09.877Z,6.30
2023-01-13T22:00:36.554Z,6.30
2023-01-13T22:03:04.314Z,6.20
2023-01-13T22:05:31.518Z,6.20
2023-01-13T22:07:58.376Z,6.10
2023-01-13T22:10:27.540Z,6.10
2023-01-13T22:13:24.920Z,6.10
2023-01-13T22:15:51.636Z,6.10
2023-01-13T22:18:18.448Z,6.20
2023-01-13T22:20:45.740Z,6.20
2023-01-13T22:23:12.503Z,6.20
2023-01-13T22:25:39.380Z,6.10
2023-01-13T22:28:08.960Z,6.20
2023-01-13T22:30:35.716Z,6.30
2023-01-13T22:33:02.394Z,6.30
2023-01-13T22:35:29.035Z,6.20
2023-01-13T22:37:55.751Z,6.70
2023-01-13T22:40:22.473Z,6.20
2023-01-13T22:42:49.195Z,6.20
2023-01-13T22:45:15.976Z,6.70
2023-01-13T22:47:42.725Z,6.30
2023-01-13T22:50:10.126Z,6.30
2023-01-13T22:52:36.879Z,6.30
2023-01-13T22:55:04.297Z,6.30
2023-01-13T22:57:36.079Z,6.20
2023-01-13T23:00:10.251Z,6.30
2023-01-13T23:02:38.403Z,6.20
2023-01-13T23:05:05.492Z,6.20
2023-01-13T23:07:32.207Z,6.20
2023-01-13T23:09:58.928Z,6.20
2023-01-13T23:12:25.575Z,6.20
2023-01-13T23:14:52.410Z,6.20
2023-01-13T23:17:19.132Z,6.20
2023-01-13T23:19:45.771Z,6.20
2023-01-13T23:22:13.401Z,6.10
2023-01-13T23:24:40.067Z,6.10
2023-01-13T23:27:06.837Z,6.10
2023-01-13T23:29:33.466Z,6.10
2023-01-13T23:32:00.166Z,6.00
2023-01-13T23:34:26.837Z,6.10
2023-01-13T23:36:53.515Z,6.00
2023-01-13T23:39:20.232Z,6.00
2023-01-13T23:41:46.892Z,6.00
2023-01-13T23:44:13.585Z,6.00
2023-01-13T23:46:40.314Z,6.00
2023-01-13T23:49:07.123Z,6.00
2023-01-13T23:51:33.978Z,6.00
2023-01-13T23:54:00.765Z,6.00
2023-01-13T23:56:30.269Z,6.00
2023-01-13T23:58:57.368Z,6.00
